createdAt,value
2023-09-17T00:01:37.388Z,5.93
2023-09-17T00:07:00.601Z,6.15
2023-09-17T00:12:24.539Z,5.32
2023-09-17T00:17:47.412Z,5.82
2023-09-17T00:23:10.489Z,6.07
2023-09-17T00:28:34.624Z,5.85
2023-09-17T00:33:57.164Z,6.38
2023-09-17T00:39:20.132Z,5.72
2023-09-17T00:44:43.599Z,5.50
2023-09-17T00:50:07.923Z,5.75
2023-09-17T00:55:31.718Z,4.97
2023-09-17T01:00:55.880Z,6.18
2023-09-17T01:06:18.394Z,5.95
2023-09-17T01:11:40.794Z,5.93
2023-09-17T01:17:05.763Z,6.30
2023-09-17T01:22:32.405Z,5.90
2023-09-17T01:27:56.931Z,5.43
2023-09-17T01:33:19.491Z,6.10
2023-09-17T01:38:47.443Z,5.85
2023-09-17T01:44:12.211Z,6.53
2023-09-17T01:49:36.400Z,5.97
2023-09-17T01:55:04.910Z,7.03
2023-09-17T02:00:29.628Z,5.85
2023-09-17T02:05:52.740Z,6.35
2023-09-17T02:11:15.342Z,5.63
2023-09-17T02:16:39.370Z,6.25
2023-09-17T02:22:01.890Z,6.47
2023-09-17T02:27:24.227Z,5.97
2023-09-17T02:32:48.031Z,5.85
2023-09-17T02:38:10.555Z,6.40
2023-09-17T02:43:32.862Z,6.72
2023-09-17T02:48:56.711Z,6.43
2023-09-17T02:54:19.004Z,6.88
2023-09-17T02:59:42.444Z,5.90
2023-09-17T03:05:06.905Z,6.57
2023-09-17T03:10:29.620Z,6.30
2023-09-17T03:15:57.067Z,7.13
2023-09-17T03:21:20.825Z,7.00
2023-09-17T03:26:43.650Z,7.38
2023-09-17T03:32:06.770Z,7.85
2023-09-17T03:37:30.584Z,7.30
2023-09-17T03:42:53.868Z,7.78
2023-09-17T03:48:19.045Z,8.18
2023-09-17T03:53:44.563Z,7.55
2023-09-17T03:59:07.771Z,8.93
2023-09-17T04:04:30.784Z,8.50
2023-09-17T04:09:54.950Z,9.20
2023-09-17T04:15:20.345Z,7.97
2023-09-17T04:20:43.261Z,9.10
2023-09-17T04:26:07.305Z,10.25
2023-09-17T04:31:30.075Z,8.93
2023-09-17T04:36:52.809Z,10.05
2023-09-17T04:42:18.406Z,10.88
2023-09-17T04:47:41.989Z,9.85
2023-09-17T04:53:04.854Z,9.55
2023-09-17T04:58:28.882Z,8.60
2023-09-17T05:03:51.610Z,9.35
2023-09-17T05:09:14.379Z,11.85
2023-09-17T05:14:38.466Z,11.45
2023-09-17T05:20:00.967Z,15.05
2023-09-17T05:25:23.531Z,12.32
2023-09-17T05:30:48.167Z,12.60
2023-09-17T05:36:10.428Z,11.75
2023-09-17T05:41:32.942Z,12.63
2023-09-17T05:46:57.300Z,11.20
2023-09-17T05:52:20.040Z,10.77
2023-09-17T05:57:44.000Z,10.10
2023-09-17T06:03:08.174Z,10.60
2023-09-17T06:08:30.970Z,12.27
2023-09-17T06:13:54.750Z,10.07
2023-09-17T06:19:19.094Z,10.88
2023-09-17T06:24:41.467Z,10.73
2023-09-17T06:30:04.185Z,12.15
2023-09-17T06:35:28.940Z,12.75
2023-09-17T06:40:51.185Z,11.77
2023-09-17T06:46:13.973Z,12.10
2023-09-17T06:51:38.493Z,13.25
2023-09-17T06:57:03.015Z,13.00
2023-09-17T07:02:25.568Z,14.23
2023-09-17T07:07:49.854Z,14.48
2023-09-17T07:13:12.756Z,14.63
2023-09-17T07:18:35.687Z,14.38
2023-09-17T07:24:00.219Z,11.88
2023-09-17T07:29:23.152Z,10.85
2023-09-17T07:34:45.908Z,10.15
2023-09-17T07:40:11.039Z,9.38
2023-09-17T07:45:35.142Z,6.90
2023-09-17T07:50:58.705Z,5.55
2023-09-17T07:56:25.156Z,5.45
2023-09-17T08:01:48.742Z,5.15
2023-09-17T08:07:12.818Z,5.68
2023-09-17T08:12:36.468Z,5.88
2023-09-17T08:17:58.934Z,4.20
2023-09-17T08:23:21.600Z,4.97
2023-09-17T08:28:46.962Z,3.92
2023-09-17T08:34:09.483Z,3.78
2023-09-17T08:39:32.696Z,4.18
2023-09-17T08:44:56.967Z,4.35
2023-09-17T08:50:19.533Z,4.93
2023-09-17T08:55:42.112Z,4.43
2023-09-17T09:01:08.127Z,4.63
2023-09-17T09:06:31.469Z,5.00
2023-09-17T09:11:54.944Z,4.30
2023-09-17T09:17:19.508Z,6.80
2023-09-17T09:22:44.761Z,4.03
2023-09-17T09:28:07.541Z,3.40
2023-09-17T09:33:33.154Z,3.42
2023-09-17T09:38:56.820Z,3.70
2023-09-17T09:44:19.004Z,3.67
2023-09-17T09:49:45.573Z,3.80
2023-09-17T09:55:08.436Z,4.97
2023-09-17T10:00:31.053Z,4.30
2023-09-17T10:05:55.535Z,3.47
2023-09-17T10:11:20.160Z,3.53
2023-09-17T10:16:42.849Z,3.40
2023-09-17T10:22:09.287Z,3.53
2023-09-17T10:27:32.999Z,3.97
2023-09-17T10:32:56.264Z,3.45
2023-09-17T10:38:20.563Z,2.78
2023-09-17T10:43:46.707Z,3.53
2023-09-17T10:49:09.666Z,3.50
2023-09-17T10:54:33.902Z,3.08
2023-09-17T10:59:57.326Z,2.92
2023-09-17T11:05:21.473Z,3.42
2023-09-17T11:10:45.367Z,3.10
2023-09-17T11:16:08.731Z,2.95
2023-09-17T11:21:31.041Z,3.72
2023-09-17T11:26:58.258Z,3.00
2023-09-17T11:32:26.221Z,2.60
2023-09-17T11:37:50.736Z,3.55
2023-09-17T11:43:15.470Z,3.17
2023-09-17T11:48:38.594Z,2.90
2023-09-17T11:54:02.264Z,2.90
2023-09-17T12:04:56.244Z,3.33
2023-09-17T12:10:21.014Z,2.80
2023-09-17T12:15:45.004Z,2.40
2023-09-17T12:21:10.365Z,3.00
2023-09-17T12:26:37.721Z,2.63
2023-09-17T12:32:01.576Z,2.58
2023-09-17T12:37:23.981Z,3.13
2023-09-17T12:42:47.389Z,3.38
2023-09-17T12:48:11.425Z,2.80
2023-09-17T12:53:34.790Z,2.60
2023-09-17T12:58:58.910Z,2.97
2023-09-17T13:04:33.138Z,3.22
2023-09-17T13:09:56.242Z,2.72
2023-09-17T13:15:18.833Z,2.80
2023-09-17T13:20:42.739Z,3.13
2023-09-17T13:26:05.395Z,2.83
2023-09-17T13:31:28.603Z,2.40
2023-09-17T13:36:52.928Z,3.30
2023-09-17T13:42:15.677Z,3.83
2023-09-17T13:47:43.128Z,3.33
2023-09-17T13:53:12.925Z,3.30
2023-09-17T13:58:42.072Z,2.95
2023-09-17T14:04:11.274Z,2.75
2023-09-17T14:09:34.953Z,2.92
2023-09-17T14:14:57.571Z,3.10
2023-09-17T14:20:22.105Z,2.72
2023-09-17T14:25:45.949Z,2.80
2023-09-17T14:31:08.338Z,2.58
2023-09-17T14:36:31.054Z,3.00
2023-09-17T14:41:55.573Z,2.45
2023-09-17T14:47:18.492Z,3.00
2023-09-17T14:52:41.293Z,3.13
2023-09-17T14:58:05.707Z,3.65
2023-09-17T15:03:30.150Z,4.18
2023-09-17T15:08:53.466Z,4.57
2023-09-17T15:14:17.484Z,3.67
2023-09-17T15:19:40.308Z,4.05
2023-09-17T15:25:03.721Z,3.50
2023-09-17T15:30:27.901Z,3.85
2023-09-17T15:35:50.680Z,3.40
2023-09-17T15:41:13.074Z,4.55
2023-09-17T15:46:37.379Z,5.10
2023-09-17T15:52:01.266Z,5.88
2023-09-17T15:57:24.414Z,6.15
2023-09-17T16:02:48.731Z,6.47
2023-09-17T16:08:11.587Z,6.30
2023-09-17T16:13:34.300Z,7.65
2023-09-17T16:18:57.998Z,9.05
2023-09-17T16:24:20.595Z,7.75
2023-09-17T16:29:43.248Z,9.38
2023-09-17T16:35:08.329Z,8.77
2023-09-17T16:40:31.132Z,9.07
2023-09-17T16:45:53.681Z,11.05
2023-09-17T16:51:19.993Z,13.20
2023-09-17T16:56:43.140Z,13.60
2023-09-17T17:02:07.287Z,15.68
2023-09-17T17:07:31.846Z,14.05
2023-09-17T17:12:54.637Z,15.07
2023-09-17T17:18:16.890Z,14.45
2023-09-17T17:23:40.876Z,14.57
2023-09-17T17:29:04.498Z,13.32
2023-09-17T17:34:26.959Z,14.10
2023-09-17T17:39:50.720Z,13.43
2023-09-17T17:45:13.266Z,11.75
2023-09-17T17:50:35.899Z,13.30
2023-09-17T17:55:59.571Z,13.55
2023-09-17T18:01:22.636Z,13.00
2023-09-17T18:06:45.137Z,13.77
2023-09-17T18:12:09.006Z,13.93
2023-09-17T18:17:32.166Z,11.50
2023-09-17T18:22:56.386Z,11.00
2023-09-17T18:28:20.886Z,9.40
2023-09-17T18:33:43.742Z,11.38
2023-09-17T18:39:06.839Z,11.75
2023-09-17T18:44:31.030Z,12.80
2023-09-17T18:49:54.234Z,13.00
2023-09-17T18:55:16.885Z,11.85
2023-09-17T19:00:41.758Z,11.73
2023-09-17T19:06:04.711Z,10.82
2023-09-17T19:11:27.540Z,11.52
2023-09-17T19:16:51.361Z,12.80
2023-09-17T19:22:13.834Z,11.20
2023-09-17T19:27:36.440Z,11.80
2023-09-17T19:33:00.188Z,10.80
2023-09-17T19:38:22.942Z,11.32
2023-09-17T19:43:45.861Z,14.15
2023-09-17T19:49:09.698Z,11.55
2023-09-17T19:54:32.190Z,12.65
2023-09-17T19:59:54.819Z,11.88
2023-09-17T20:05:19.043Z,12.15
2023-09-17T20:10:41.986Z,12.55
2023-09-17T20:16:04.456Z,11.70
2023-09-17T20:21:30.783Z,13.38
2023-09-17T20:26:53.859Z,13.50
2023-09-17T20:32:16.466Z,14.23
2023-09-17T20:37:40.316Z,13.75
2023-09-17T20:43:02.901Z,13.32
2023-09-17T20:48:26.744Z,13.63
2023-09-17T20:53:51.136Z,13.27
2023-09-17T20:59:15.274Z,11.75
2023-09-17T21:04:38.564Z,10.55
2023-09-17T21:10:02.660Z,12.07
2023-09-17T21:15:25.399Z,13.82
2023-09-17T21:20:47.897Z,13.88
2023-09-17T21:26:11.882Z,14.63
2023-09-17T21:31:34.759Z,14.65
2023-09-17T21:36:57.302Z,15.00
2023-09-17T21:42:21.002Z,14.73
2023-09-17T21:47:43.452Z,16.48
2023-09-17T21:53:05.970Z,15.50
2023-09-17T21:58:29.763Z,17.48
2023-09-17T22:03:52.728Z,18.05
2023-09-17T22:09:15.208Z,16.98
2023-09-17T22:14:39.634Z,18.27
2023-09-17T22:20:02.048Z,17.77
2023-09-17T22:25:25.231Z,17.27
2023-09-17T22:30:49.186Z,15.23
2023-09-17T22:36:11.799Z,15.43
2023-09-17T22:41:34.237Z,16.67
2023-09-17T22:46:58.478Z,15.10
2023-09-17T22:52:20.992Z,12.63
2023-09-17T22:57:43.418Z,17.67
2023-09-17T23:03:07.394Z,14.85
2023-09-17T23:08:30.700Z,14.13
2023-09-17T23:13:53.047Z,15.32
2023-09-17T23:19:17.207Z,13.48
2023-09-17T23:24:39.785Z,13.07
2023-09-17T23:30:02.582Z,11.88
2023-09-17T23:35:29.606Z,13.75
2023-09-17T23:40:52.173Z,14.63
2023-09-17T23:46:14.998Z,15.90
2023-09-17T23:51:39.170Z,13.57
2023-09-17T23:57:01.905Z,14.43
